Time;durP1;ratioP1;P1;durP2;ratioP2;P2;SDS_P1;SDS_P2;PMS_P1;PMS_P2;Temp;Humidity;BMP_temperature;BMP_pressure;BME280_temperature;BME280_humidity;BME280_pressure;Samples;Min_cycle;Max_cycle;Signal;HPM_P1;HPM_P2
2023/01/05 00:01:56;;;;;;;18.13;7.32;;;;;;;6.24;96.12;95475.78;5117113;28;20198;-82
2023/01/05 00:04:23;;;;;;;11.60;5.60;;;;;;;6.08;96.01;95468.91;5122067;28;20656;-82
2023/01/05 00:06:51;;;;;;;15.80;5.65;;;;;;;6.18;96.32;95468.81;5108836;28;20265;-81
2023/01/05 00:09:21;;;;;;;16.35;7.00;;;;;;;6.23;96.21;95468.81;5117356;28;20193;-82
2023/01/05 00:22:53;;;;;;;15.15;6.63;;;;;;;6.64;95.39;95460.41;5120031;28;20287;-80
2023/01/05 00:25:21;;;;;;;9.25;5.13;;;;;;;6.63;95.63;95451.53;5115310;28;20211;-80
2023/01/05 00:27:50;;;;;;;15.02;5.05;;;;;;;6.52;95.53;95441.16;5118604;28;20259;-81
2023/01/05 00:30:19;;;;;;;13.07;5.68;;;;;;;6.65;95.35;95446.69;5119740;28;20206;-82
2023/01/05 00:32:46;;;;;;;14.38;6.50;;;;;;;6.73;95.06;95439.88;5129366;28;20787;-81
2023/01/05 00:35:18;;;;;;;14.00;5.68;;;;;;;6.70;94.58;95426.97;5116099;28;20225;-82
2023/01/05 00:37:45;;;;;;;18.30;7.38;;;;;;;6.58;94.88;95429.22;5116634;28;20280;-82
2023/01/05 00:40:15;;;;;;;15.60;7.10;;;;;;;6.71;95.08;95431.28;5122784;28;20651;-82
2023/01/05 00:42:42;;;;;;;11.98;6.22;;;;;;;6.61;95.48;95436.75;5115541;28;20194;-82
2023/01/05 00:45:11;;;;;;;19.40;8.55;;;;;;;6.64;95.50;95428.13;5121734;28;20209;-81
2023/01/05 00:47:38;;;;;;;14.90;7.43;;;;;;;6.71;95.30;95433.97;5123027;28;20642;-81
2023/01/05 00:50:07;;;;;;;19.02;7.00;;;;;;;6.78;94.95;95439.84;5117564;28;20706;-81
2023/01/05 00:52:33;;;;;;;14.18;6.03;;;;;;;6.78;95.12;95437.16;5115060;28;20204;-81
2023/01/05 00:55:00;;;;;;;18.40;7.75;;;;;;;6.80;94.78;95434.16;5109267;28;20210;-81
2023/01/05 00:57:28;;;;;;;20.45;6.95;;;;;;;6.92;94.15;95440.78;5115842;28;20215;-82
2023/01/05 00:59:55;;;;;;;19.52;9.07;;;;;;;6.89;94.13;95429.78;5126881;28;20202;-82
2023/01/05 01:02:22;;;;;;;12.00;6.13;;;;;;;6.88;94.27;95434.34;5115471;28;20209;-81
2023/01/05 01:04:48;;;;;;;15.43;6.80;;;;;;;6.80;94.49;95437.66;5120490;28;20668;-81
2023/01/05 01:07:16;;;;;;;23.15;10.45;;;;;;;6.81;93.87;95431.19;5123282;28;20209;-81
2023/01/05 01:09:42;;;;;;;14.55;7.70;;;;;;;6.92;94.15;95430.00;5112420;28;20194;-81
2023/01/05 01:12:11;;;;;;;16.17;7.28;;;;;;;6.84;94.34;95432.50;5126096;27;20202;-82
2023/01/05 01:14:39;;;;;;;14.45;7.05;;;;;;;6.83;94.42;95431.72;5122642;27;20560;-82
2023/01/05 01:17:06;;;;;;;19.67;6.88;;;;;;;6.87;94.32;95424.66;5119140;27;20200;-81
2023/01/05 01:19:33;;;;;;;12.77;6.50;;;;;;;6.77;94.84;95424.75;5126227;27;20992;-81
2023/01/05 01:22:01;;;;;;;18.85;7.72;;;;;;;6.78;94.86;95426.38;5119448;27;20201;-81
2023/01/05 01:24:28;;;;;;;16.13;6.65;;;;;;;6.79;94.88;95425.28;5121955;27;20201;-81
2023/01/05 01:26:55;;;;;;;17.50;8.40;;;;;;;6.81;94.80;95416.94;5126303;27;20205;-81
2023/01/05 01:29:23;;;;;;;12.82;7.18;;;;;;;6.92;94.35;95413.03;5118807;27;20533;-81
2023/01/05 01:31:53;;;;;;;14.10;5.75;;;;;;;7.01;93.45;95401.34;5126193;27;20224;-82
2023/01/05 01:34:20;;;;;;;24.52;6.70;;;;;;;7.07;93.16;95394.84;5124340;27;20249;-82
2023/01/05 01:36:47;;;;;;;13.80;6.90;;;;;;;7.06;92.82;95400.50;5119057;27;20728;-82
2023/01/05 01:39:14;;;;;;;17.10;7.63;;;;;;;7.04;92.93;95395.41;5124308;27;20281;-82
2023/01/05 01:41:41;;;;;;;13.77;5.47;;;;;;;6.99;92.92;95395.44;5117484;27;20197;-82
2023/01/05 01:44:45;;;;;;;13.85;6.82;;;;;;;7.02;92.89;95386.00;5118093;27;20193;-82
2023/01/05 01:47:17;;;;;;;22.73;8.38;;;;;;;6.82;93.60;95375.47;5123611;27;20818;-82
2023/01/05 01:49:44;;;;;;;16.88;6.05;;;;;;;6.92;93.53;95376.16;5114479;27;20194;-82
2023/01/05 01:52:12;;;;;;;20.48;6.43;;;;;;;6.86;93.75;95371.88;5124030;27;20193;-82
2023/01/05 01:54:39;;;;;;;14.13;6.20;;;;;;;6.86;93.72;95365.69;5113214;27;20278;-82
2023/01/05 01:57:06;;;;;;;9.80;5.63;;;;;;;6.94;93.06;95368.59;5118892;27;20540;-82
2023/01/05 01:59:33;;;;;;;11.05;5.30;;;;;;;6.91;93.08;95363.75;5116517;27;20591;-81
2023/01/05 02:02:01;;;;;;;24.13;10.82;;;;;;;6.98;92.84;95350.75;5132052;27;20260;-81
2023/01/05 02:04:32;;;;;;;16.48;6.72;;;;;;;6.98;92.72;95353.44;5126223;27;20285;-81
2023/01/05 02:07:00;;;;;;;23.75;10.23;;;;;;;7.03;92.15;95356.09;5111455;28;20197;-81
2023/01/05 02:09:27;;;;;;;9.23;4.63;;;;;;;6.87;92.54;95351.94;5114257;27;20216;-81
2023/01/05 02:12:04;;;;;;;11.50;5.63;;;;;;;6.68;93.24;95348.41;5132073;27;20264;-80
2023/01/05 02:14:40;;;;;;;24.88;7.35;;;;;;;6.57;93.91;95341.50;5119800;27;20764;-81
2023/01/05 02:17:19;;;;;;;18.65;7.95;;;;;;;6.56;94.47;95339.91;5118535;27;20208;-81
2023/01/05 02:20:23;;;;;;;6.93;4.07;;;;;;;6.57;94.80;95333.41;5123102;27;20220;-81
2023/01/05 02:23:20;;;;;;;13.63;7.10;;;;;;;6.60;94.19;95335.53;5120216;27;20934;-81
2023/01/05 02:26:11;;;;;;;7.80;4.72;;;;;;;6.62;93.82;95328.00;5110319;28;20200;-81
2023/01/05 02:29:01;;;;;;;10.80;5.95;;;;;;;6.47;94.45;95325.47;5125160;27;20201;-81
2023/01/05 02:31:36;;;;;;;12.05;5.50;;;;;;;6.30;95.65;95326.69;5114009;27;20202;-82
2023/01/05 02:34:15;;;;;;;7.47;4.30;;;;;;;6.34;96.08;95326.91;5110514;28;20242;-81
2023/01/05 02:36:49;;;;;;;10.98;5.70;;;;;;;6.37;96.40;95337.94;5127702;27;20222;-82
2023/01/05 02:39:18;;;;;;;12.02;4.32;;;;;;;6.50;96.16;95330.28;5120965;27;20320;-82
2023/01/05 02:41:49;;;;;;;16.30;5.53;;;;;;;6.32;95.97;95334.47;5117326;27;20205;-81
2023/01/05 02:44:17;;;;;;;13.18;6.10;;;;;;;6.25;96.37;95334.81;5128519;27;20239;-81
2023/01/05 02:46:45;;;;;;;12.13;5.05;;;;;;;6.19;96.73;95335.13;5117091;27;20211;-82
2023/01/05 02:49:14;;;;;;;13.82;6.72;;;;;;;6.19;96.85;95335.94;5119872;27;20204;-82
2023/01/05 02:51:46;;;;;;;8.57;4.43;;;;;;;6.16;96.88;95325.72;5118224;27;20197;-82
2023/01/05 02:54:18;;;;;;;10.13;3.60;;;;;;;6.17;96.75;95321.97;5116075;27;20254;-82
2023/01/05 02:56:52;;;;;;;10.85;5.15;;;;;;;6.25;96.80;95318.69;5115863;27;20533;-82
2023/01/05 02:59:26;;;;;;;9.25;4.43;;;;;;;6.28;96.51;95320.00;5125895;27;20216;-82
2023/01/05 03:01:58;;;;;;;11.05;5.68;;;;;;;6.39;96.31;95303.47;5121842;27;20193;-82
2023/01/05 03:04:29;;;;;;;19.73;6.13;;;;;;;6.67;95.11;95295.66;5116981;27;20193;-82
2023/01/05 03:06:59;;;;;;;14.30;5.88;;;;;;;6.64;94.50;95299.72;5116836;27;20201;-82
2023/01/05 03:09:35;;;;;;;8.20;4.18;;;;;;;6.68;94.55;95294.56;5116138;27;20605;-82
2023/01/05 03:14:58;;;;;;;12.48;6.00;;;;;;;6.69;94.61;95296.16;5122245;27;20615;-82
2023/01/05 03:17:32;;;;;;;12.35;6.07;;;;;;;6.77;94.02;95287.44;5109625;28;20251;-81
2023/01/05 03:20:00;;;;;;;14.27;5.90;;;;;;;6.92;93.19;95279.19;5121200;27;20265;-82
2023/01/05 03:36:38;;;;;;;9.90;5.15;;;;;;;6.73;94.00;95254.09;5130331;27;20972;-81
2023/01/05 03:39:07;;;;;;;11.93;4.85;;;;;;;6.66;93.87;95240.19;5127484;27;20218;-82
2023/01/05 03:41:34;;;;;;;10.43;5.68;;;;;;;6.50;94.29;95255.72;5116173;27;20250;-81
2023/01/05 03:44:01;;;;;;;13.75;6.43;;;;;;;6.34;95.16;95247.00;5126955;27;20197;-81
2023/01/05 03:46:28;;;;;;;13.00;5.28;;;;;;;6.25;95.93;95250.63;5116040;27;20245;-82
2023/01/05 03:48:56;;;;;;;11.60;4.75;;;;;;;6.37;95.85;95253.72;5130066;27;20691;-82
2023/01/05 03:51:23;;;;;;;12.77;6.53;;;;;;;6.24;95.95;95257.88;5128948;27;20206;-82
2023/01/05 03:53:50;;;;;;;10.77;6.20;;;;;;;6.48;95.57;95262.47;5118385;28;20206;-81
2023/01/05 03:56:16;;;;;;;15.88;7.32;;;;;;;6.42;95.79;95264.44;5123644;27;20672;-80
2023/01/05 03:58:43;;;;;;;13.98;6.72;;;;;;;6.47;95.96;95255.47;5117902;27;20221;-82
2023/01/05 04:01:10;;;;;;;11.85;5.30;;;;;;;6.58;95.11;95257.78;5123169;27;20197;-80
2023/01/05 04:03:37;;;;;;;11.63;4.20;;;;;;;6.59;94.67;95245.13;5121075;28;20582;-81
2023/01/05 04:06:06;;;;;;;14.25;5.18;;;;;;;6.55;95.30;95247.59;5111062;28;20198;-81
2023/01/05 04:08:32;;;;;;;11.90;5.07;;;;;;;6.52;94.95;95247.38;5121375;28;20828;-81
2023/01/05 04:11:11;;;;;;;12.07;4.65;;;;;;;6.57;95.57;95244.59;5116440;28;20253;-81
2023/01/05 04:13:37;;;;;;;15.30;5.90;;;;;;;6.54;95.43;95245.19;5115949;28;20232;-81
2023/01/05 04:16:05;;;;;;;12.23;5.65;;;;;;;6.58;95.52;95241.63;5129797;27;20246;-81
2023/01/05 04:18:32;;;;;;;14.13;5.40;;;;;;;6.63;94.33;95238.06;5115893;28;20198;-81
2023/01/05 04:20:58;;;;;;;10.60;4.70;;;;;;;6.60;94.59;95235.94;5121139;28;20201;-81
2023/01/05 04:23:27;;;;;;;17.17;6.45;;;;;;;6.48;95.12;95224.78;5115848;28;20220;-80
2023/01/05 04:25:53;;;;;;;8.18;4.35;;;;;;;6.34;95.27;95230.06;5121579;28;20239;-81
2023/01/05 04:28:20;;;;;;;8.48;3.83;;;;;;;6.31;95.33;95236.81;5124635;28;20197;-83
2023/01/05 04:30:50;;;;;;;11.80;5.38;;;;;;;6.32;95.46;95233.03;5122997;28;20193;-83
2023/01/05 04:33:16;;;;;;;13.02;5.10;;;;;;;6.24;95.72;95230.19;5113930;28;20254;-81
2023/01/05 04:35:43;;;;;;;14.68;6.15;;;;;;;6.09;96.10;95233.03;5118375;28;20606;-82
2023/01/05 04:38:10;;;;;;;14.52;5.22;;;;;;;5.95;96.56;95227.50;5115691;28;20590;-83
2023/01/05 04:40:38;;;;;;;19.08;6.07;;;;;;;5.89;97.27;95225.94;5116715;28;20492;-81
2023/01/05 04:43:05;;;;;;;18.10;6.22;;;;;;;5.76;97.79;95238.13;5122748;28;20270;-82
2023/01/05 04:45:32;;;;;;;10.98;5.40;;;;;;;5.56;98.98;95236.41;5120481;27;20222;-82
2023/01/05 04:47:59;;;;;;;13.38;4.97;;;;;;;5.45;99.48;95229.53;5129975;27;20268;-81
2023/01/05 04:50:27;;;;;;;12.75;6.05;;;;;;;5.28;100.00;95234.47;5131885;27;20659;-81
2023/01/05 04:52:53;;;;;;;19.52;6.97;;;;;;;5.18;100.00;95239.91;5115351;27;20664;-82
2023/01/05 04:55:20;;;;;;;11.50;5.10;;;;;;;5.05;100.00;95245.91;5112739;28;20213;-82
2023/01/05 04:57:48;;;;;;;14.30;6.22;;;;;;;4.96;100.00;95251.03;5121153;27;20193;-82
2023/01/05 05:00:15;;;;;;;9.75;3.80;;;;;;;4.94;100.00;95251.31;5115573;27;20222;-82
2023/01/05 05:02:43;;;;;;;7.18;5.00;;;;;;;4.85;100.00;95261.03;5127666;27;20204;-82
2023/01/05 05:05:11;;;;;;;12.52;5.18;;;;;;;4.86;100.00;95262.63;5103764;28;20217;-81
2023/01/05 05:07:38;;;;;;;11.60;5.28;;;;;;;4.95;100.00;95268.22;5118514;27;20200;-81
2023/01/05 05:10:06;;;;;;;10.75;4.97;;;;;;;4.95;100.00;95258.28;5121125;27;20664;-80
2023/01/05 05:12:33;;;;;;;8.43;4.28;;;;;;;4.99;100.00;95264.72;5125862;27;20221;-81
2023/01/05 05:15:01;;;;;;;9.07;5.07;;;;;;;5.04;100.00;95265.78;5119363;27;20275;-80
2023/01/05 05:17:27;;;;;;;9.85;5.15;;;;;;;5.02;100.00;95273.31;5117224;27;20205;-79
2023/01/05 05:19:54;;;;;;;17.42;6.90;;;;;;;4.99;100.00;95272.75;5126450;27;20792;-79
2023/01/05 05:22:21;;;;;;;12.23;6.90;;;;;;;4.97;100.00;95272.22;5114574;27;20197;-80
2023/01/05 05:24:48;;;;;;;11.05;6.38;;;;;;;4.98;100.00;95279.22;5125155;27;20201;-79
2023/01/05 05:27:14;;;;;;;9.23;5.53;;;;;;;5.13;100.00;95266.78;5112393;28;20205;-80
2023/01/05 05:29:41;;;;;;;17.08;6.22;;;;;;;5.29;100.00;95258.38;5120701;27;20609;-80
2023/01/05 05:32:09;;;;;;;17.05;7.60;;;;;;;5.40;100.00;95263.66;5118900;27;20285;-80
2023/01/05 05:34:36;;;;;;;16.95;6.72;;;;;;;5.38;100.00;95261.25;5118668;27;20206;-79
2023/01/05 05:37:03;;;;;;;11.43;4.82;;;;;;;5.28;100.00;95253.28;5132275;27;20327;-80
2023/01/05 05:39:30;;;;;;;13.25;5.80;;;;;;;5.20;100.00;95256.53;5129085;27;20208;-79
2023/01/05 05:41:56;;;;;;;19.88;6.68;;;;;;;5.13;100.00;95253.38;5125313;27;20625;-79
2023/01/05 05:44:23;;;;;;;13.60;6.43;;;;;;;5.12;100.00;95246.38;5115991;27;20221;-80
2023/01/05 05:46:59;;;;;;;15.88;6.97;;;;;;;5.13;100.00;95234.56;5124767;27;20197;-79
2023/01/05 05:49:27;;;;;;;18.17;6.65;;;;;;;4.97;100.00;95234.66;5124561;27;20185;-79
2023/01/05 05:51:54;;;;;;;11.32;5.65;;;;;;;4.92;100.00;95231.97;5121647;27;20254;-79
2023/01/05 05:54:20;;;;;;;13.57;6.13;;;;;;;4.79;100.00;95226.41;5119393;27;20201;-79
2023/01/05 05:56:47;;;;;;;9.63;5.18;;;;;;;4.69;100.00;95221.09;5127278;27;20238;-79
2023/01/05 05:59:14;;;;;;;22.98;6.45;;;;;;;4.64;100.00;95220.06;5118418;27;20220;-78
2023/01/05 06:01:43;;;;;;;11.70;5.07;;;;;;;4.55;100.00;95216.34;5121670;27;20258;-79
2023/01/05 06:04:10;;;;;;;16.02;5.75;;;;;;;4.53;100.00;95213.13;5118913;27;20246;-79
2023/01/05 06:06:38;;;;;;;10.32;5.57;;;;;;;4.61;100.00;95220.63;5121876;27;20208;-79
2023/01/05 06:09:05;;;;;;;7.65;4.38;;;;;;;4.62;100.00;95211.50;5128181;27;20197;-79
2023/01/05 06:11:32;;;;;;;10.40;5.72;;;;;;;4.64;100.00;95216.59;5123067;27;20253;-79
2023/01/05 06:13:59;;;;;;;15.45;7.28;;;;;;;4.61;100.00;95209.09;5132646;27;20223;-79
2023/01/05 06:16:25;;;;;;;11.55;5.55;;;;;;;4.53;100.00;95197.03;5131756;27;20293;-78
2023/01/05 06:18:52;;;;;;;14.43;6.85;;;;;;;4.59;100.00;95203.19;5128067;27;20209;-80
2023/01/05 06:21:20;;;;;;;17.45;6.65;;;;;;;4.57;100.00;95206.13;5119389;27;20225;-81
2023/01/05 06:23:48;;;;;;;25.08;9.82;;;;;;;4.72;100.00;95197.22;5125934;27;20194;-79
2023/01/05 06:26:15;;;;;;;18.83;8.13;;;;;;;4.73;100.00;95198.81;5122828;27;20262;-80
2023/01/05 06:28:42;;;;;;;17.13;8.32;;;;;;;5.02;100.00;95203.50;5118119;27;20806;-79
2023/01/05 06:31:09;;;;;;;20.58;7.05;;;;;;;5.28;100.00;95186.13;5117756;27;20216;-79
2023/01/05 06:33:36;;;;;;;20.70;8.25;;;;;;;5.27;100.00;95189.88;5125352;27;20235;-78
2023/01/05 06:36:02;;;;;;;15.10;8.20;;;;;;;5.39;100.00;95193.00;5123633;27;20208;-80
2023/01/05 06:38:29;;;;;;;20.83;8.35;;;;;;;5.38;99.79;95185.22;5118390;27;20312;-78
2023/01/05 06:40:58;;;;;;;20.35;7.53;;;;;;;5.28;99.61;95191.50;5115442;27;20258;-79
2023/01/05 06:43:25;;;;;;;17.45;7.65;;;;;;;5.37;99.25;95189.81;5125048;27;20255;-79
2023/01/05 06:45:55;;;;;;;14.35;6.63;;;;;;;5.38;99.44;95179.88;5125452;27;20203;-79
2023/01/05 06:48:21;;;;;;;17.40;8.20;;;;;;;5.41;100.00;95185.47;5126178;27;20206;-79
2023/01/05 06:50:48;;;;;;;20.58;7.60;;;;;;;5.39;100.00;95182.28;5126059;27;20668;-79
2023/01/05 06:53:15;;;;;;;16.67;8.77;;;;;;;5.39;100.00;95187.66;5119675;27;20205;-80
2023/01/05 06:55:42;;;;;;;21.95;9.32;;;;;;;5.57;100.00;95184.28;5117716;27;20205;-80
2023/01/05 06:58:10;;;;;;;18.00;8.90;;;;;;;5.69;99.57;95184.69;5119222;27;20594;-80
2023/01/05 07:00:36;;;;;;;23.27;10.20;;;;;;;5.83;98.92;95181.34;5123190;27;20277;-80
2023/01/05 07:03:03;;;;;;;21.13;8.77;;;;;;;6.07;97.99;95190.28;5118883;27;20197;-80
2023/01/05 07:05:31;;;;;;;16.02;8.52;;;;;;;6.23;97.40;95186.34;5131611;27;20200;-80
2023/01/05 07:07:59;;;;;;;14.90;7.57;;;;;;;6.36;96.07;95184.84;5122812;27;20209;-81
2023/01/05 07:10:25;;;;;;;26.85;8.70;;;;;;;6.17;95.67;95187.47;5115228;27;20208;-79
2023/01/05 07:12:52;;;;;;;16.25;8.30;;;;;;;6.54;100.00;95184.09;5122775;27;20274;-81
2023/01/05 07:15:20;;;;;;;27.15;10.45;;;;;;;6.71;100.00;95181.69;5124231;27;21017;-80
2023/01/05 07:17:47;;;;;;;18.73;10.02;;;;;;;7.16;100.00;95175.97;5120081;27;20234;-81
2023/01/05 07:20:14;;;;;;;25.38;11.05;;;;;;;7.58;100.00;95178.53;5127839;27;20262;-81
2023/01/05 07:22:40;;;;;;;22.95;9.18;;;;;;;7.59;98.62;95174.75;5131819;27;20261;-82
2023/01/05 07:25:08;;;;;;;22.65;9.25;;;;;;;8.09;100.00;95178.44;5117532;27;20209;-81
2023/01/05 07:27:35;;;;;;;9.25;5.40;;;;;;;8.08;93.91;95176.03;5131267;27;20205;-80
2023/01/05 07:30:02;;;;;;;23.63;10.10;;;;;;;8.28;92.47;95164.88;5122565;27;20244;-82
2023/01/05 07:32:30;;;;;;;27.00;10.57;;;;;;;8.15;91.04;95171.06;5121914;27;20239;-81
2023/01/05 07:34:57;;;;;;;15.85;8.65;;;;;;;8.16;90.22;95161.88;5123854;27;20267;-80
2023/01/05 07:37:26;;;;;;;21.88;8.57;;;;;;;8.01;89.14;95159.47;5110101;28;20557;-79
2023/01/05 07:39:53;;;;;;;13.02;6.75;;;;;;;8.08;89.14;95157.97;5120488;27;20228;-78
2023/01/05 07:42:19;;;;;;;15.85;8.25;;;;;;;8.30;89.44;95146.50;5110036;28;20433;-80
2023/01/05 07:44:46;;;;;;;18.55;8.85;;;;;;;8.25;87.67;95149.28;5116193;27;20246;-79
2023/01/05 07:47:13;;;;;;;15.50;8.60;;;;;;;8.21;87.85;95149.06;5130885;27;20609;-79
2023/01/05 07:49:41;;;;;;;24.88;10.30;;;;;;;8.05;87.37;95145.09;5117371;27;20249;-79
2023/01/05 07:52:08;;;;;;;22.88;9.48;;;;;;;8.02;88.09;95144.88;5130066;27;20559;-79
2023/01/05 07:54:35;;;;;;;16.83;7.97;;;;;;;7.94;87.41;95148.25;5125718;27;20205;-80
2023/01/05 07:57:02;;;;;;;15.15;6.38;;;;;;;7.95;87.50;95139.06;5115162;27;20201;-80
2023/01/05 07:59:31;;;;;;;16.20;7.38;;;;;;;8.15;87.07;95139.50;5112258;27;20203;-80
2023/01/05 08:01:58;;;;;;;13.57;6.95;;;;;;;7.99;86.98;95145.47;5122634;27;20220;-80
2023/01/05 08:04:25;;;;;;;15.57;6.90;;;;;;;8.04;86.57;95142.69;5110464;27;20202;-79
2023/01/05 08:06:53;;;;;;;19.75;8.27;;;;;;;8.04;86.66;95137.28;5109363;28;20785;-79
2023/01/05 08:12:04;;;;;;;15.73;6.63;;;;;;;7.98;85.97;95133.06;5114865;28;20228;-79
2023/01/05 08:14:31;;;;;;;17.77;7.45;;;;;;;7.92;86.33;95131.59;5110590;28;20229;-79
2023/01/05 08:16:58;;;;;;;18.83;7.22;;;;;;;7.93;85.89;95125.06;5110751;28;20194;-78
2023/01/05 08:19:24;;;;;;;16.50;6.97;;;;;;;7.94;86.09;95127.47;5130063;27;20656;-83
2023/01/05 08:21:52;;;;;;;20.10;7.65;;;;;;;8.14;85.62;95126.28;5144973;27;20233;-83
2023/01/05 08:24:19;;;;;;;29.40;9.68;;;;;;;8.17;85.50;95136.50;5142949;27;20201;-81
2023/01/05 08:26:49;;;;;;;16.30;7.93;;;;;;;8.38;84.66;95129.63;5123571;27;20251;-79
2023/01/05 08:29:16;;;;;;;20.20;10.30;;;;;;;8.02;86.11;95128.69;5123282;27;20209;-79
2023/01/05 08:31:43;;;;;;;14.23;6.28;;;;;;;7.76;86.75;95137.25;5126763;27;20263;-79
2023/01/05 08:34:09;;;;;;;23.00;8.05;;;;;;;7.62;88.12;95131.03;5124126;27;20196;-82
2023/01/05 08:36:36;;;;;;;20.25;9.10;;;;;;;7.34;89.13;95134.75;5116978;27;20205;-78
2023/01/05 08:39:04;;;;;;;16.70;8.75;;;;;;;7.01;90.54;95142.78;5114696;28;20197;-79
2023/01/05 08:41:34;;;;;;;21.83;9.60;;;;;;;6.86;91.30;95140.31;5128675;27;20221;-82
2023/01/05 08:44:04;;;;;;;12.95;5.53;;;;;;;7.00;90.59;95134.97;5126127;27;20224;-82
2023/01/05 08:46:33;;;;;;;17.45;7.72;;;;;;;7.07;89.76;95130.03;5129830;27;20206;-81
2023/01/05 08:49:01;;;;;;;19.17;6.93;;;;;;;7.13;89.68;95129.66;5126943;27;20266;-83
2023/01/05 08:51:29;;;;;;;29.08;8.57;;;;;;;7.33;89.33;95125.84;5120163;27;20257;-82
2023/01/05 08:53:56;;;;;;;16.75;8.35;;;;;;;7.70;87.72;95122.25;5112507;28;20208;-82
2023/01/05 08:56:25;;;;;;;18.13;9.77;;;;;;;7.79;85.82;95115.06;5127515;27;20197;-81
2023/01/05 08:58:54;;;;;;;14.70;6.63;;;;;;;7.91;85.14;95111.09;5128044;27;20201;-82
2023/01/05 09:01:21;;;;;;;18.95;9.00;;;;;;;8.23;84.48;95112.88;5120788;27;20285;-83
2023/01/05 09:03:48;;;;;;;23.05;9.02;;;;;;;8.18;83.80;95111.09;5120274;27;20202;-80
2023/01/05 09:06:16;;;;;;;18.70;8.05;;;;;;;8.23;83.91;95102.91;5132872;27;20212;-78
2023/01/05 09:08:44;;;;;;;12.95;5.85;;;;;;;8.62;82.39;95088.88;5115830;27;20700;-79
2023/01/05 09:11:14;;;;;;;14.77;6.85;;;;;;;9.01;80.87;95080.19;5134711;27;20646;-82
2023/01/05 09:13:46;;;;;;;15.07;6.10;;;;;;;9.07;79.28;95072.72;5123679;27;20202;-80
2023/01/05 09:16:14;;;;;;;12.18;6.07;;;;;;;8.95;79.36;95062.47;5123644;27;20253;-80
2023/01/05 09:18:42;;;;;;;14.77;7.00;;;;;;;9.07;78.40;95051.91;5124899;28;20210;-81
2023/01/05 09:21:10;;;;;;;17.02;7.60;;;;;;;8.99;79.44;95049.94;5123601;28;20225;-83
2023/01/05 09:23:37;;;;;;;19.63;9.20;;;;;;;8.85;78.86;95033.00;5118808;28;20205;-83
2023/01/05 09:26:06;;;;;;;23.35;9.25;;;;;;;9.07;79.05;95027.59;5121758;28;20668;-81
2023/01/05 09:28:35;;;;;;;21.70;9.40;;;;;;;9.20;77.95;95017.81;5125472;28;20202;-82
2023/01/05 09:31:08;;;;;;;37.92;16.95;;;;;;;9.28;78.78;95022.50;5112073;28;20194;-82
2023/01/05 09:33:35;;;;;;;21.00;11.50;;;;;;;9.09;79.16;95003.75;5125558;28;20748;-83
2023/01/05 09:36:04;;;;;;;16.45;8.10;;;;;;;9.15;78.85;95004.44;5125203;28;20589;-82
2023/01/05 09:38:30;;;;;;;18.63;8.88;;;;;;;9.27;78.60;95001.97;5129442;28;20289;-81
2023/01/05 09:41:03;;;;;;;34.72;17.42;;;;;;;8.99;78.69;95004.03;5125305;28;20224;-81
2023/01/05 09:43:35;;;;;;;24.33;10.75;;;;;;;9.22;79.22;95002.88;5120228;28;20621;-83
2023/01/05 09:46:06;;;;;;;17.85;9.45;;;;;;;9.54;77.41;94996.38;5119735;28;20194;-80
2023/01/05 09:48:39;;;;;;;15.45;7.78;;;;;;;9.45;76.18;94976.59;5124178;28;20193;-83
2023/01/05 09:51:08;;;;;;;16.15;7.30;;;;;;;9.48;75.29;94980.59;5125520;28;20287;-81
2023/01/05 09:53:35;;;;;;;19.25;8.23;;;;;;;9.56;75.32;94972.53;5121834;28;20201;-81
2023/01/05 09:56:02;;;;;;;11.13;3.85;;;;;;;9.64;74.55;94968.25;5119500;28;20204;-81
2023/01/05 09:58:36;;;;;;;20.38;8.07;;;;;;;9.75;74.77;94966.84;5123999;28;20205;-80
2023/01/05 10:01:09;;;;;;;13.32;6.43;;;;;;;9.86;74.90;94957.31;5118831;28;20243;-81
2023/01/05 10:03:41;;;;;;;25.13;12.50;;;;;;;10.01;73.86;94955.28;5119449;28;20652;-80
2023/01/05 10:06:13;;;;;;;15.43;7.47;;;;;;;9.84;73.38;94946.00;5133423;28;20238;-82
2023/01/05 10:08:43;;;;;;;10.10;5.95;;;;;;;9.41;74.20;94953.22;5120254;28;20197;-85
2023/01/05 10:14:05;;;;;;;14.32;6.32;;;;;;;9.83;75.71;94949.84;5125537;28;20771;-82
2023/01/05 10:16:32;;;;;;;15.98;7.57;;;;;;;10.15;72.90;94942.41;5084153;27;1135413;-81
2023/01/05 10:19:03;;;;;;;21.27;6.95;;;;;;;10.19;73.28;94946.13;5132710;27;20209;-82
2023/01/05 10:21:40;;;;;;;10.55;6.57;;;;;;;10.26;71.87;94941.81;5132663;27;20213;-83
2023/01/05 10:24:21;;;;;;;17.80;10.60;;;;;;;10.60;71.49;94935.63;5118693;27;20716;-83
2023/01/05 10:27:16;;;;;;;13.88;6.57;;;;;;;10.65;69.84;94935.47;5131737;27;20209;-83
2023/01/05 10:29:45;;;;;;;10.80;5.78;;;;;;;10.41;70.34;94937.84;5118916;27;20790;-79
2023/01/05 10:32:24;;;;;;;18.52;7.43;;;;;;;10.24;71.23;94927.03;5125305;27;20202;-81
2023/01/05 10:35:01;;;;;;;24.70;12.73;;;;;;;10.29;71.47;94914.13;5128292;27;20241;-81
2023/01/05 10:37:48;;;;;;;18.65;8.90;;;;;;;10.29;71.71;94918.72;5121658;27;20193;-81
2023/01/05 10:40:26;;;;;;;16.17;6.93;;;;;;;10.54;71.32;94907.09;5112195;28;20193;-82
2023/01/05 10:43:09;;;;;;;19.00;7.40;;;;;;;10.67;70.90;94918.88;5126567;27;20343;-82
2023/01/05 10:45:37;;;;;;;23.83;13.43;;;;;;;10.49;70.20;94915.41;5121987;27;20697;-82
2023/01/05 10:48:13;;;;;;;23.30;12.05;;;;;;;10.81;69.80;94897.00;5126704;27;20209;-82
2023/01/05 10:50:42;;;;;;;22.98;12.82;;;;;;;10.99;70.78;94888.53;5126357;27;20201;-82
2023/01/05 10:53:12;;;;;;;22.98;12.77;;;;;;;10.93;69.20;94883.63;5132042;27;20258;-81
2023/01/05 10:55:51;;;;;;;23.55;12.75;;;;;;;11.22;69.42;94880.94;5132301;27;20203;-82
2023/01/05 10:58:24;;;;;;;24.00;12.25;;;;;;;11.22;68.42;94880.94;5120713;27;20193;-83
2023/01/05 11:00:54;;;;;;;16.67;8.00;;;;;;;11.07;67.81;94878.00;5126223;27;20217;-81
2023/01/05 11:03:29;;;;;;;19.92;8.55;;;;;;;10.76;69.56;94878.22;5111942;28;20250;-82
2023/01/05 11:06:00;;;;;;;20.83;9.48;;;;;;;10.93;68.71;94872.78;5125077;27;20193;-82
2023/01/05 11:08:28;;;;;;;20.15;6.82;;;;;;;11.01;68.35;94869.22;5123112;27;20204;-83
2023/01/05 11:10:57;;;;;;;13.00;6.43;;;;;;;11.05;67.62;94853.91;5132181;27;20783;-81
2023/01/05 11:13:30;;;;;;;18.25;8.02;;;;;;;11.13;68.12;94872.06;5131541;27;20209;-82
2023/01/05 11:16:01;;;;;;;17.65;7.85;;;;;;;11.35;67.25;94863.66;5111525;28;20237;-80
2023/01/05 11:18:35;;;;;;;12.52;6.97;;;;;;;11.32;67.03;94858.91;5115246;27;20637;-81
2023/01/05 11:21:08;;;;;;;13.43;6.18;;;;;;;11.02;67.33;94854.56;5132666;27;20319;-83
2023/01/05 11:23:37;;;;;;;14.98;7.38;;;;;;;11.18;68.14;94857.53;5120870;27;20209;-81
2023/01/05 11:26:26;;;;;;;20.92;7.18;;;;;;;11.40;70.64;94843.69;5133027;27;20218;-79
2023/01/05 11:29:14;;;;;;;18.67;7.30;;;;;;;12.01;66.78;94841.44;5124354;27;20247;-83
2023/01/05 11:31:48;;;;;;;13.65;6.32;;;;;;;12.02;64.86;94843.81;5123466;27;20297;-85
2023/01/05 11:34:26;;;;;;;14.80;6.97;;;;;;;11.92;66.37;94855.06;5114734;27;20197;-79
2023/01/05 11:36:57;;;;;;;12.55;6.20;;;;;;;12.14;64.65;94834.94;5121319;27;20193;-81
2023/01/05 11:39:29;;;;;;;10.90;5.68;;;;;;;12.20;64.34;94827.38;5121610;27;20200;-78
2023/01/05 11:42:12;;;;;;;17.58;5.88;;;;;;;12.59;62.67;94832.28;5123579;27;20221;-78
2023/01/05 11:44:42;;;;;;;18.60;6.53;;;;;;;12.64;62.24;94823.94;5128662;27;20204;-78
2023/01/05 11:47:10;;;;;;;19.75;10.40;;;;;;;12.57;62.53;94833.78;5119827;27;20656;-77
2023/01/05 11:49:39;;;;;;;20.23;10.77;;;;;;;12.71;61.56;94826.88;5115707;27;20254;-77
2023/01/05 11:52:27;;;;;;;20.77;10.80;;;;;;;12.49;63.07;94821.84;5127775;27;20201;-78
2023/01/05 11:54:54;;;;;;;22.00;11.25;;;;;;;12.71;61.68;94820.69;5116994;27;20197;-80
2023/01/05 11:57:26;;;;;;;21.08;10.07;;;;;;;13.04;61.30;94812.44;5122429;27;20719;-80
2023/01/05 12:00:00;;;;;;;21.30;11.77;;;;;;;12.96;61.45;94810.63;5124438;27;20205;-79
2023/01/05 12:03:05;;;;;;;24.40;11.38;;;;;;;12.81;61.92;94810.16;5110047;28;20210;-79
2023/01/05 12:05:40;;;;;;;20.73;10.55;;;;;;;13.20;60.89;94810.69;5122372;27;20233;-78
2023/01/05 12:08:13;;;;;;;20.90;11.73;;;;;;;13.68;59.54;94809.06;5119580;28;20702;-77
2023/01/05 12:11:01;;;;;;;18.13;9.80;;;;;;;13.95;57.96;94805.63;5120878;28;20209;-78
2023/01/05 12:13:53;;;;;;;20.35;10.60;;;;;;;13.58;59.07;94796.72;5117776;28;20199;-79
2023/01/05 12:16:39;;;;;;;17.15;10.00;;;;;;;13.57;58.11;94799.78;5121603;28;20278;-79